Latest Weather Observations for Pound Creek

IDV60801

Issued at 4:35 pm EDT Sunday 26 October 2014 (issued every 30 minutes, with the page automatically refreshed every 10 minutes)

About weather observations | Map of weather stations | Latest weather observations for VIC | Other Formats
Station Details ID: 085099 Name: POUND CREEK Lat: -38.63 Lon: 145.81 Height: 3.0 m
Data from the previous 72 hours. | See also: Recent months at Pound Creek
Date/Time
EDT
Temp
°C
App
Temp
°C
Dew
Point
Rel
Hum
%
Delta-T
°C
Wind Press
QNH
hPa
Press
MSL
hPa
Rain
since 9 am
mm
Dir
 
Spd
km/h
Gust
km/h
Spd
kts
Gust
kts
26/04:30pm 15.4 14.1 11.4 77 2.1 S 9 13 5 7 1011.4 1011.4 0.0
26/04:00pm 15.1 13.6 10.7 75 2.3 SW 9 13 5 7 1012.5 1012.5 0.0
26/03:30pm 15.4 14.5 10.8 74 2.4 SSW 6 9 3 5 1012.6 1012.6 0.0
26/03:00pm 14.5 13.2 10.1 75 2.3 S 7 11 4 6 1012.8 1012.8 0.0
26/02:30pm 14.6 11.5 10.2 75 2.3 SSW 17 22 9 12 1013.5 1013.5 0.0
26/02:00pm 14.6 11.5 10.2 75 2.3 SW 17 20 9 11 1013.6 1013.6 0.0
26/01:30pm 15.3 13.8 10.5 73 2.5 SW 9 15 5 8 1013.1 1013.1 0.0
26/01:00pm 15.4 13.2 10.8 74 2.4 SW 13 20 7 11 1013.3 1013.3 0.0
26/12:30pm 16.1 14.6 11.9 76 2.3 SW 11 17 6 9 1013.6 1013.6 0.0
26/12:00pm 15.3 13.4 10.5 73 2.5 SW 11 17 6 9 1013.8 1013.8 0.0
26/11:30am 16.0 14.5 11.8 76 2.3 SW 11 15 6 8 1014.1 1014.1 0.0
26/11:00am 15.2 12.7 11.2 77 2.1 SW 15 20 8 11 1014.5 1014.5 0.0
26/10:30am 14.6 12.5 11.0 79 1.9 SW 13 22 7 12 1014.7 1014.7 0.0
26/10:00am 13.7 11.0 10.3 80 1.8 SW 15 19 8 10 1014.7 1014.7 0.0
26/09:30am 13.9 11.7 10.9 82 1.6 SW 13 19 7 10 1014.5 1014.5 0.0
26/09:00am 13.8 12.0 11.0 83 1.5 SSW 11 15 6 8 1014.3 1014.3 0.0
26/08:30am 14.0 13.0 11.0 82 1.6 WSW 7 11 4 6 1014.0 1014.0 0.0
26/08:00am 13.7 12.9 10.9 83 1.5 WSW 6 9 3 5 1013.8 1013.8 0.0
26/07:30am 13.3 12.2 10.8 85 1.3 SW 7 9 4 5 1013.6 1013.6 0.0
26/07:00am 13.0 12.2 10.9 87 1.1 SW 6 9 3 5 1013.5 1013.5 0.0
26/06:30am 12.7 11.8 10.6 87 1.1 SSW 6 7 3 4 1013.5 1013.5 0.0
26/06:00am 12.8 11.7 10.5 86 1.2 SW 7 9 4 5 1013.3 1013.3 0.0
26/05:30am 12.8 11.3 10.5 86 1.2 SW 9 11 5 6 1013.3 1013.3 0.0
26/05:00am 12.8 11.9 10.5 86 1.2 SSW 6 9 3 5 1013.2 1013.2 0.0
26/04:30am 12.9 11.4 10.6 86 1.2 SSW 9 11 5 6 1013.2 1013.2 0.0
26/04:00am 12.9 11.5 10.8 87 1.1 SSW 9 13 5 7 1013.2 1013.2 0.0
26/03:30am 13.0 12.0 11.1 88 1.0 S 7 9 4 5 1013.1 1013.1 0.0
26/03:00am 13.0 12.0 11.1 88 1.0 SSW 7 11 4 6 1013.6 1013.6 0.0
26/02:30am 13.0 12.2 11.2 89 0.9 SSW 6 7 3 4 1014.0 1014.0 0.0
26/02:00am 13.1 12.7 11.2 88 1.0 S 4 4 2 2 1014.4 1014.4 0.0
26/01:30am 13.0 13.0 11.1 88 1.0 SSE 2 4 1 2 1014.5 1014.5 0.0
26/01:00am 13.0 12.5 10.9 87 1.1 E 4 6 2 3 1015.1 1015.1 0.0
26/12:30am 13.1 12.7 11.2 88 1.0 ESE 4 6 2 3 1015.5 1015.5 0.0
26/12:00am 13.2 13.2 11.1 87 1.1 S 2 6 1 3 1016.1 1016.1 0.0
 
Date/Time
EDT
Temp
°C
App
Temp
°C
Dew
Point
Rel
Hum
%
Delta-T
°C
Wind Press
QNH
hPa
Press
MSL
hPa
Rain
since 9 am
mm
Dir
 
Spd
km/h
Gust
km/h
Spd
kts
Gust
kts
25/11:30pm 13.1 12.7 11.0 87 1.1 SSE 4 6 2 3 1016.2 1016.2 0.0
25/11:00pm 13.2 13.6 11.1 87 1.1 CALM 0 0 0 0 1016.3 1016.3 0.0
25/10:30pm 13.2 13.2 11.1 87 1.1 ESE 2 4 1 2 1016.3 1016.3 0.0
25/10:00pm 13.2 12.7 10.9 86 1.2 ESE 4 6 2 3 1016.6 1016.6 0.0
25/09:30pm 13.3 12.8 10.8 85 1.3 SE 4 6 2 3 1016.7 1016.7 0.0
25/09:00pm 13.5 12.6 10.7 83 1.5 SE 6 7 3 4 1016.4 1016.4 0.0
25/08:30pm 13.7 12.6 10.7 82 1.6 S 7 9 4 5 1016.6 1016.6 0.0
25/08:00pm 13.7 12.7 10.9 83 1.5 S 7 9 4 5 1016.2 1016.2 0.0
25/07:30pm 13.9 12.8 10.7 81 1.7 SSW 7 11 4 6 1016.2 1016.2 0.0
25/07:00pm 14.3 12.9 10.9 80 1.8 SSW 9 15 5 8 1015.8 1015.8 0.0
25/06:30pm 14.9 13.7 11.5 80 1.8 S 9 13 5 7 1015.6 1015.6 0.0
25/06:00pm 15.0 12.9 11.2 78 2.0 S 13 17 7 9 1015.4 1015.4 0.0
25/05:30pm 15.2 13.0 12.2 82 1.6 S 15 19 8 10 1015.4 1015.4 0.0
25/05:00pm 15.1 13.3 12.1 82 1.6 SSW 13 19 7 10 1015.4 1015.4 0.0
25/04:30pm 15.4 13.1 11.8 79 1.9 S 15 19 8 10 1015.4 1015.4 0.0
25/04:00pm 15.5 13.4 11.1 75 2.3 S 13 17 7 9 1015.5 1015.5 0.0
25/03:30pm 16.1 14.4 12.5 79 2.0 SSW 13 20 7 11 1015.5 1015.5 0.0
25/03:00pm 15.6 13.5 11.0 74 2.4 SSW 13 19 7 10 1015.9 1015.9 0.0
25/02:30pm 15.9 13.6 11.7 76 2.3 SSW 15 20 8 11 1016.0 1016.0 0.0
25/02:00pm 15.7 13.7 11.5 76 2.3 SW 13 17 7 9 1016.3 1016.3 0.0
25/01:30pm 16.1 14.9 11.7 75 2.4 SW 9 15 5 8 1016.3 1016.3 0.0
25/01:00pm 15.8 14.5 11.4 75 2.4 SSW 9 15 5 8 1016.4 1016.4 0.0
25/12:30pm 16.3 15.1 11.7 74 2.5 WSW 9 13 5 7 1016.5 1016.5 0.0
25/12:00pm 16.3 15.2 11.9 75 2.4 SW 9 15 5 8 1016.9 1016.9 0.0
25/11:30am 15.8 15.1 11.4 75 2.4 SW 6 11 3 6 1017.1 1017.1 0.0
25/11:00am 15.1 14.4 11.3 78 2.0 SW 6 9 3 5 1017.6 1017.6 0.0
25/10:30am 14.8 13.6 11.6 81 1.7 SW 9 13 5 7 1017.8 1017.8 0.0
25/10:00am 15.2 14.1 12.0 81 1.7 WSW 9 13 5 7 1017.9 1017.9 0.0
25/09:30am 14.1 13.5 11.8 86 1.2 WNW 6 9 3 5 1018.0 1018.0 0.0
25/09:00am 13.8 12.6 11.5 86 1.2 W 9 15 5 8 1018.0 1018.0 0.0
25/08:30am 13.7 12.9 11.6 87 1.1 W 7 11 4 6 1018.0 1018.0 0.0
25/08:00am 13.5 13.3 11.7 89 1.0 NW 4 7 2 4 1017.7 1017.7 0.0
25/07:30am 13.3 13.1 11.7 90 0.9 NW 4 7 2 4 1017.5 1017.5 0.0
25/07:00am 13.2 12.6 11.6 90 0.8 NW 6 7 3 4 1017.2 1017.2 0.0
25/06:30am 13.1 11.8 11.3 89 1.0 W 9 15 5 8 1016.8 1016.8 0.0
25/06:00am 13.0 11.7 11.4 90 0.8 W 9 13 5 7 1016.6 1016.6 0.0
25/05:30am 13.5 11.1 11.4 87 1.1 WSW 15 19 8 10 1016.4 1016.4 0.0
25/05:00am 13.7 10.7 10.7 82 1.6 W 17 22 9 12 1016.1 1016.1 0.0
25/04:30am 13.8 11.0 11.5 86 1.2 WSW 17 26 9 14 1015.9 1015.9 0.0
25/04:00am 13.9 10.5 11.4 85 1.3 WSW 20 26 11 14 1015.8 1015.8 0.0
25/03:30am 14.0 10.8 11.3 84 1.4 W 19 28 10 15 1015.8 1015.8 0.0
25/03:00am 14.0 11.9 11.3 84 1.4 W 13 20 7 11 1015.9 1015.9 0.0
25/02:30am 14.0 11.2 11.2 83 1.5 W 17 26 9 14 1016.0 1016.0 0.0
25/02:00am 14.0 10.8 11.3 84 1.4 W 19 28 10 15 1016.0 1016.0 0.0
25/01:30am 14.0 10.9 11.5 85 1.3 W 19 26 10 14 1016.0 1016.0 0.0
25/01:00am 14.3 11.6 11.8 85 1.3 W 17 24 9 13 1016.0 1016.0 0.0
25/12:30am 14.4 11.4 12.1 86 1.2 WSW 19 26 10 14 1016.0 1016.0 0.0
25/12:00am 14.3 12.2 12.3 88 1.1 W 15 26 8 14 1015.8 1015.8 0.0
 
Date/Time
EDT
Temp
°C
App
Temp
°C
Dew
Point
Rel
Hum
%
Delta-T
°C
Wind Press
QNH
hPa
Press
MSL
hPa
Rain
since 9 am
mm
Dir
 
Spd
km/h
Gust
km/h
Spd
kts
Gust
kts
24/11:30pm 14.1 13.3 12.8 92 0.7 W 9 13 5 7 1015.9 1015.9 0.0
24/11:00pm 13.8 13.0 12.9 94 0.5 WNW 9 17 5 9 1015.6 1015.6 0.0
24/10:30pm 13.4 13.0 12.5 94 0.5 NW 6 9 3 5 1015.4 1015.4 0.0
24/10:00pm 13.7 13.8 12.6 93 0.6 NW 4 9 2 5 1014.9 1014.9 0.0
24/09:30pm 13.9 13.4 12.6 92 0.7 W 7 11 4 6 1014.7 1014.7 0.0
24/09:00pm 14.9 13.2 13.6 92 0.7 SW 15 26 8 14 1014.2 1014.2 0.0
24/08:30pm 15.1 11.5 14.1 94 0.6 SW 26 33 14 18 1013.9 1013.9 0.0
24/08:00pm 16.2 11.6 14.6 90 0.9 WSW 32 39 17 21 1013.3 1013.3 0.0
24/07:56pm 16.4 11.8 14.6 89 1.0 SW 32 35 17 19 1013.2 1013.2 0.0
24/07:30pm 16.8 16.0 13.9 83 1.6 WSW 11 17 6 9 1012.4 1012.4 0.0
24/07:00pm 17.7 17.8 14.4 81 1.9 WSW 7 11 4 6 1011.5 1011.5 0.0
24/06:30pm 19.1 18.7 15.2 78 2.3 SW 11 15 6 8 1011.0 1011.0 0.0
24/06:00pm 19.4 18.3 15.3 77 2.4 SW 15 19 8 10 1010.8 1010.8 0.0
24/05:30pm 21.1 20.4 16.3 74 2.9 SW 15 20 8 11 1010.3 1010.3 0.0
24/05:00pm 21.7 21.8 16.6 73 3.1 SW 11 15 6 8 1010.0 1010.0 0.0
24/04:30pm 22.1 21.9 17.5 75 2.8 WSW 15 19 8 10 1010.1 1010.1 0.0
24/04:00pm 22.5 22.3 17.6 74 3.0 SW 15 20 8 11 1010.0 1010.0 0.0
24/03:30pm 25.2 25.4 18.6 67 4.2 WSW 15 22 8 12 1010.0 1010.0 0.0
24/03:00pm 26.1 25.0 17.7 60 5.3 W 20 28 11 15 1009.9 1009.9 0.0
24/02:30pm 26.4 25.8 17.5 58 5.6 NW 17 26 9 14 1009.8 1009.8 0.0
24/02:00pm 25.6 24.6 16.7 58 5.5 NW 17 30 9 16 1010.0 1010.0 0.0
24/01:30pm 25.3 25.4 17.5 62 4.9 WNW 13 22 7 12 1010.2 1010.2 0.0
24/01:00pm 25.0 25.5 17.5 63 4.7 NW 11 24 6 13 1010.4 1010.4 0.0
24/12:30pm 24.8 26.6 18.7 69 3.9 NNW 7 13 4 7 1010.6 1010.6 0.0
24/12:00pm 24.2 26.5 18.6 71 3.5 N 4 9 2 5 1010.9 1010.9 0.0
24/11:30am 23.4 24.7 18.5 74 3.1 NE 9 13 5 7 1011.2 1011.2 0.0
24/11:00am 22.3 23.0 17.9 76 2.7 ENE 11 17 6 9 1011.4 1011.4 0.0
24/10:30am 20.9 20.5 16.3 75 2.8 ENE 13 17 7 9 1011.5 1011.5 0.0
24/10:00am 20.8 20.3 16.8 78 2.4 ENE 15 19 8 10 1011.7 1011.7 0.0
24/09:30am 20.0 18.8 16.0 78 2.4 ENE 17 24 9 13 1011.9 1011.9 0.0
24/09:00am 19.2 18.8 16.2 83 1.8 ENE 13 19 7 10 1012.2 1012.2 0.0
24/08:30am 18.0 17.8 15.6 86 1.4 ENE 11 17 6 9 1012.4 1012.4 0.0
24/08:00am 16.9 16.5 15.2 90 1.0 E 11 15 6 8 1012.5 1012.5 0.0
24/07:30am 16.2 16.2 15.1 93 0.6 E 9 13 5 7 1012.6 1012.6 0.0
24/07:00am 15.4 15.5 14.4 94 0.6 E 7 9 4 5 1012.7 1012.7 0.0
24/06:30am 15.2 15.2 14.1 93 0.6 ENE 7 11 4 6 1012.8 1012.8 0.0
24/06:00am 15.6 14.9 14.3 92 0.7 E 11 15 6 8 1012.8 1012.8 0.0
24/05:30am 15.7 14.6 14.2 91 0.9 E 13 19 7 10 1012.8 1012.8 0.0
24/05:00am 15.8 14.7 14.3 91 0.9 E 13 19 7 10 1012.9 1012.9 0.0
24/04:30am 16.1 14.3 14.5 90 0.9 E 17 26 9 14 1013.0 1013.0 0.0
24/04:00am 16.0 13.8 14.4 90 0.9 E 19 26 10 14 1013.1 1013.1 0.0
24/03:30am 15.9 13.5 14.4 91 0.9 E 20 30 11 16 1013.4 1013.4 0.0
24/03:00am 15.7 12.5 14.2 91 0.9 E 24 32 13 17 1013.8 1013.8 0.0
24/02:30am 15.6 12.3 14.1 91 0.8 E 24 35 13 19 1014.3 1014.3 0.0
24/02:00am 15.6 11.9 14.0 90 0.9 E 26 35 14 19 1014.8 1014.8 0.0
24/01:30am 15.6 11.9 14.0 90 0.9 E 26 35 14 19 1015.2 1015.2 0.0
24/01:00am 15.5 11.8 13.9 90 0.9 E 26 37 14 20 1015.8 1015.8 0.0
24/12:30am 15.4 11.7 13.8 90 0.9 E 26 39 14 21 1016.2 1016.2 0.0
24/12:00am 15.6 11.5 13.8 89 1.0 E 28 37 15 20 1016.4 1016.4 0.0
 
Date/Time
EDT
Temp
°C
App
Temp
°C
Dew
Point
Rel
Hum
%
Delta-T
°C
Wind Press
QNH
hPa
Press
MSL
hPa
Rain
since 9 am
mm
Dir
 
Spd
km/h
Gust
km/h
Spd
kts
Gust
kts
23/11:30pm 15.5 11.4 13.9 90 0.9 E 28 44 15 24 1016.9 1016.9 0.0
23/11:00pm 15.2 10.7 13.7 91 0.8 E 30 44 16 24 1017.2 1017.2 0.0
23/10:30pm 14.9 9.9 13.4 91 0.8 E 32 44 17 24 1017.5 1017.5 0.0
23/10:01pm 15.0 9.8 13.4 90 0.9 E 33 52 18 28 1017.9 1017.9 0.0
23/10:00pm 15.0 9.8 13.4 90 0.9 E 33 48 18 26 1017.9 1017.9 0.0
23/09:48pm 15.1 9.5 13.3 89 1.0 E 35 54 19 29 1018.0 1018.0 0.0
23/09:30pm 15.0 9.9 13.2 89 1.0 E 32 44 17 24 1018.1 1018.1 0.0
23/09:00pm 14.7 9.6 13.1 90 0.9 E 32 48 17 26 1018.1 1018.1 0.0
23/08:30pm 14.6 9.5 13.1 91 0.8 E 32 44 17 24 1018.0 1018.0 0.0
23/08:00pm 14.5 9.2 13.0 91 0.8 E 33 44 18 24 1018.0 1018.0 0.0
23/07:30pm 14.7 9.4 13.1 90 0.9 E 33 44 18 24 1018.2 1018.2 0.0
23/07:00pm 15.2 11.3 13.2 88 1.1 E 26 39 14 21 1018.1 1018.1 0.0
23/06:30pm 16.0 10.8 13.3 84 1.5 E 33 44 18 24 1018.0 1018.0 0.0
23/06:01pm 16.3 11.2 13.6 84 1.5 E 33 54 18 29 1018.0 1018.0 0.0
23/06:00pm 16.3 10.7 13.4 83 1.6 E 35 54 19 29 1017.9 1017.9 0.0
23/05:59pm 16.3 11.1 13.4 83 1.6 E 33 54 18 29 1017.9 1017.9 0.0
23/05:30pm 16.4 11.5 13.7 84 1.5 E 32 43 17 23 1017.9 1017.9 0.0
23/05:00pm 16.6 12.1 13.7 83 1.6 E 30 44 16 24 1018.1 1018.1 0.0
23/04:43pm 16.7 12.2 13.8 83 1.6 E 30 52 16 28 1018.2 1018.2 0.0

Other Formats:

Comma delimited format used in spreadsheet applications
http://www.bom.gov.au/fwo/IDV60801/IDV60801.94886.axf

JavaScript Object Notation format (JSON) in row-major order
http://www.bom.gov.au/fwo/IDV60801/IDV60801.94886.json